createdAt,value
2023-02-09T00:14:30.796Z,32.80
2023-02-09T00:29:30.634Z,31.30
2023-02-09T00:44:30.499Z,33.10
2023-02-09T00:59:30.350Z,32.90
2023-02-09T01:14:30.208Z,29.50
2023-02-09T01:29:30.073Z,30.20
2023-02-09T01:44:29.927Z,32.50
2023-02-09T01:59:29.777Z,32.40
2023-02-09T02:14:29.634Z,30.80
2023-02-09T02:29:29.493Z,35.00
2023-02-09T02:44:35.850Z,37.00
2023-02-09T02:59:29.220Z,32.50
2023-02-09T03:14:29.109Z,32.90
2023-02-09T03:29:28.946Z,29.90
2023-02-09T03:44:28.777Z,25.70
2023-02-09T03:59:28.650Z,27.20
2023-02-09T04:14:28.563Z,28.10
2023-02-09T04:29:28.345Z,27.70
2023-02-09T04:44:28.202Z,29.50
2023-02-09T04:59:28.645Z,28.90
2023-02-09T05:14:28.028Z,28.70
2023-02-09T05:29:27.809Z,27.70
2023-02-09T05:44:27.636Z,30.90
2023-02-09T05:59:27.482Z,29.40
2023-02-09T06:14:27.340Z,31.00
2023-02-09T06:29:27.200Z,30.40
2023-02-09T06:44:27.052Z,31.80
2023-02-09T06:59:26.906Z,33.40
2023-02-09T07:14:26.754Z,32.80
2023-02-09T07:29:26.648Z,29.40
2023-02-09T07:44:26.470Z,27.60
2023-02-09T07:59:26.340Z,28.80
2023-02-09T08:14:26.184Z,27.00
2023-02-09T08:29:26.045Z,28.90
2023-02-09T08:44:25.909Z,27.00
2023-02-09T08:59:32.637Z,26.00
2023-02-09T09:14:25.595Z,26.70
2023-02-09T09:29:25.463Z,25.00
2023-02-09T09:44:25.310Z,24.00
2023-02-09T09:59:25.154Z,21.50
2023-02-09T10:14:24.999Z,21.20
2023-02-09T10:29:24.841Z,20.60
2023-02-09T10:44:24.733Z,18.60
2023-02-09T10:59:24.548Z,19.70
2023-02-09T11:14:24.406Z,18.10
2023-02-09T11:29:24.266Z,16.30
2023-02-09T11:44:24.120Z,15.60
2023-02-09T11:59:23.957Z,15.80
2023-02-09T12:14:23.832Z,15.60
2023-02-09T12:29:23.668Z,15.90
2023-02-09T12:44:23.623Z,16.30
2023-02-09T12:59:23.370Z,16.10
2023-02-09T13:14:23.240Z,15.60
2023-02-09T13:29:23.099Z,16.80
2023-02-09T13:44:22.979Z,15.60
2023-02-09T13:59:22.790Z,14.20
2023-02-09T14:14:22.619Z,14.80
2023-02-09T14:29:22.471Z,18.30
2023-02-09T14:44:22.316Z,16.50
2023-02-09T14:59:22.165Z,16.30
2023-02-09T15:14:22.014Z,16.90
2023-02-09T15:29:21.887Z,17.20
2023-02-09T15:44:21.722Z,19.40
2023-02-09T15:59:21.608Z,17.60
2023-02-09T16:14:21.438Z,19.00
2023-02-09T16:29:21.339Z,19.30
2023-02-09T16:44:21.156Z,19.70
2023-02-09T16:59:21.093Z,18.30
2023-02-09T17:14:20.866Z,22.00
2023-02-09T17:29:20.710Z,20.40
2023-02-09T17:44:32.014Z,19.10
2023-02-09T17:59:20.483Z,23.90
2023-02-09T18:14:20.254Z,20.30
2023-02-09T18:29:20.695Z,22.60
2023-02-09T18:44:20.037Z,26.80
2023-02-09T18:59:19.834Z,30.20
2023-02-09T19:14:19.676Z,22.00
2023-02-09T19:29:19.539Z,25.60
2023-02-09T19:44:19.400Z,20.00
2023-02-09T19:59:19.300Z,20.80
2023-02-09T20:14:19.125Z,21.00
2023-02-09T20:29:18.922Z,23.20
2023-02-09T20:44:18.768Z,27.00
2023-02-09T20:59:18.741Z,27.10
2023-02-09T21:14:27.460Z,26.30
2023-02-09T21:29:18.416Z,29.70
2023-02-09T21:44:18.164Z,25.30
2023-02-09T21:59:18.022Z,26.50
2023-02-09T22:14:17.841Z,25.90
2023-02-09T22:29:17.806Z,24.70
2023-02-09T22:44:17.541Z,26.90
2023-02-09T22:59:17.395Z,26.60
2023-02-09T23:14:17.260Z,25.60
2023-02-09T23:29:17.139Z,25.50
2023-02-09T23:44:16.955Z,24.20
2023-02-09T23:59:16.797Z,25.00
